sensor_id;sensor_type;location;lat;lon;timestamp;temperature;humidity
11848;DHT22;5983;49.966;8.052;2023-03-01T00:01:40;2.20;99.60
11848;DHT22;5983;49.966;8.052;2023-03-01T00:04:07;2.20;99.70
11848;DHT22;5983;49.966;8.052;2023-03-01T00:06:35;2.20;99.70
11848;DHT22;5983;49.966;8.052;2023-03-01T00:09:03;2.20;99.90
11848;DHT22;5983;49.966;8.052;2023-03-01T00:11:31;2.20;99.90
11848;DHT22;5983;49.966;8.052;2023-03-01T00:14:00;2.20;99.90
11848;DHT22;5983;49.966;8.052;2023-03-01T00:16:32;2.20;99.90
11848;DHT22;5983;49.966;8.052;2023-03-01T00:19:00;2.20;99.90
11848;DHT22;5983;49.966;8.052;2023-03-01T00:21:27;2.20;99.90
11848;DHT22;5983;49.966;8.052;2023-03-01T00:23:56;2.10;99.90
11848;DHT22;5983;49.966;8.052;2023-03-01T00:26:25;2.20;99.90
11848;DHT22;5983;49.966;8.052;2023-03-01T00:28:53;2.10;99.90
11848;DHT22;5983;49.966;8.052;2023-03-01T00:31:23;2.10;99.90
11848;DHT22;5983;49.966;8.052;2023-03-01T00:33:53;2.10;99.90
11848;DHT22;5983;49.966;8.052;2023-03-01T00:36:23;2.20;99.90
11848;DHT22;5983;49.966;8.052;2023-03-01T00:38:51;2.10;99.90
11848;DHT22;5983;49.966;8.052;2023-03-01T00:41:20;2.10;99.90
11848;DHT22;5983;49.966;8.052;2023-03-01T00:43:49;2.10;99.90
11848;DHT22;5983;49.966;8.052;2023-03-01T00:46:18;2.10;99.90
11848;DHT22;5983;49.966;8.052;2023-03-01T00:48:46;2.00;99.90
11848;DHT22;5983;49.966;8.052;2023-03-01T00:51:20;2.00;99.90
11848;DHT22;5983;49.966;8.052;2023-03-01T00:53:50;2.00;99.90
11848;DHT22;5983;49.966;8.052;2023-03-01T00:56:20;2.00;99.90
11848;DHT22;5983;49.966;8.052;2023-03-01T00:58:47;2.00;99.90
11848;DHT22;5983;49.966;8.052;2023-03-01T01:01:16;1.90;99.90
11848;DHT22;5983;49.966;8.052;2023-03-01T01:03:46;1.90;99.90
11848;DHT22;5983;49.966;8.052;2023-03-01T01:06:15;1.90;99.90
11848;DHT22;5983;49.966;8.052;2023-03-01T01:08:43;1.90;99.90
11848;DHT22;5983;49.966;8.052;2023-03-01T01:11:11;1.80;99.90
11848;DHT22;5983;49.966;8.052;2023-03-01T01:13:40;1.80;99.90
11848;DHT22;5983;49.966;8.052;2023-03-01T01:16:08;1.80;99.90
11848;DHT22;5983;49.966;8.052;2023-03-01T01:18:35;1.80;99.90
11848;DHT22;5983;49.966;8.052;2023-03-01T01:21:05;1.80;99.90
11848;DHT22;5983;49.966;8.052;2023-03-01T01:23:33;1.80;99.90
11848;DHT22;5983;49.966;8.052;2023-03-01T01:26:04;1.80;99.90
11848;DHT22;5983;49.966;8.052;2023-03-01T01:28:32;1.80;99.90
11848;DHT22;5983;49.966;8.052;2023-03-01T01:31:01;1.80;99.90
11848;DHT22;5983;49.966;8.052;2023-03-01T01:33:29;1.80;99.90
11848;DHT22;5983;49.966;8.052;2023-03-01T01:35:56;1.80;99.90
11848;DHT22;5983;49.966;8.052;2023-03-01T01:38:23;1.80;99.90
11848;DHT22;5983;49.966;8.052;2023-03-01T01:40:51;1.80;99.90
11848;DHT22;5983;49.966;8.052;2023-03-01T01:43:21;1.80;99.90
11848;DHT22;5983;49.966;8.052;2023-03-01T01:45:50;1.70;99.90
11848;DHT22;5983;49.966;8.052;2023-03-01T01:48:24;1.70;99.90
11848;DHT22;5983;49.966;8.052;2023-03-01T01:51:07;1.70;99.90
11848;DHT22;5983;49.966;8.052;2023-03-01T01:53:38;1.60;99.90
11848;DHT22;5983;49.966;8.052;2023-03-01T01:56:08;1.70;99.90
11848;DHT22;5983;49.966;8.052;2023-03-01T01:58:38;1.70;99.90
11848;DHT22;5983;49.966;8.052;2023-03-01T02:01:07;1.70;99.90
11848;DHT22;5983;49.966;8.052;2023-03-01T02:03:38;1.70;99.90
11848;DHT22;5983;49.966;8.052;2023-03-01T02:06:15;1.70;99.90
11848;DHT22;5983;49.966;8.052;2023-03-01T02:08:49;1.70;99.90
11848;DHT22;5983;49.966;8.052;2023-03-01T02:11:19;1.60;99.90
11848;DHT22;5983;49.966;8.052;2023-03-01T02:13:48;1.60;99.90
11848;DHT22;5983;49.966;8.052;2023-03-01T02:16:16;1.50;99.90
11848;DHT22;5983;49.966;8.052;2023-03-01T02:18:45;1.40;99.90
11848;DHT22;5983;49.966;8.052;2023-03-01T02:24:19;1.20;99.90
11848;DHT22;5983;49.966;8.052;2023-03-01T02:26:55;1.10;99.90
11848;DHT22;5983;49.966;8.052;2023-03-01T02:29:24;1.00;99.90
11848;DHT22;5983;49.966;8.052;2023-03-01T02:31:55;0.90;99.90
11848;DHT22;5983;49.966;8.052;2023-03-01T02:34:25;1.00;99.90
11848;DHT22;5983;49.966;8.052;2023-03-01T02:36:56;1.00;99.90
11848;DHT22;5983;49.966;8.052;2023-03-01T02:39:30;1.10;99.90
11848;DHT22;5983;49.966;8.052;2023-03-01T02:41:59;1.10;99.90
11848;DHT22;5983;49.966;8.052;2023-03-01T02:44:31;1.10;99.90
11848;DHT22;5983;49.966;8.052;2023-03-01T02:47:01;1.10;99.90
11848;DHT22;5983;49.966;8.052;2023-03-01T02:49:31;1.00;99.90
11848;DHT22;5983;49.966;8.052;2023-03-01T02:52:22;1.00;99.90
11848;DHT22;5983;49.966;8.052;2023-03-01T02:55:00;0.80;99.90
11848;DHT22;5983;49.966;8.052;2023-03-01T02:57:31;0.80;99.90
11848;DHT22;5983;49.966;8.052;2023-03-01T03:00:03;0.70;99.90
11848;DHT22;5983;49.966;8.052;2023-03-01T03:02:34;0.60;99.90
11848;DHT22;5983;49.966;8.052;2023-03-01T03:05:08;0.60;99.90
11848;DHT22;5983;49.966;8.052;2023-03-01T03:07:39;0.60;99.90
11848;DHT22;5983;49.966;8.052;2023-03-01T03:10:10;0.60;99.90
11848;DHT22;5983;49.966;8.052;2023-03-01T03:12:38;0.60;99.90
11848;DHT22;5983;49.966;8.052;2023-03-01T03:15:09;0.60;99.90
11848;DHT22;5983;49.966;8.052;2023-03-01T03:17:39;0.60;99.90
11848;DHT22;5983;49.966;8.052;2023-03-01T03:20:10;0.60;99.90
11848;DHT22;5983;49.966;8.052;2023-03-01T03:22:38;0.60;99.90
11848;DHT22;5983;49.966;8.052;2023-03-01T03:25:06;0.60;99.90
11848;DHT22;5983;49.966;8.052;2023-03-01T03:27:36;0.60;99.90
11848;DHT22;5983;49.966;8.052;2023-03-01T03:30:04;0.50;99.90
11848;DHT22;5983;49.966;8.052;2023-03-01T03:32:35;0.50;99.90
11848;DHT22;5983;49.966;8.052;2023-03-01T03:35:02;0.50;99.90
11848;DHT22;5983;49.966;8.052;2023-03-01T03:37:34;0.50;99.90
11848;DHT22;5983;49.966;8.052;2023-03-01T03:40:19;0.50;99.90
11848;DHT22;5983;49.966;8.052;2023-03-01T03:42:46;0.60;99.90
11848;DHT22;5983;49.966;8.052;2023-03-01T03:45:15;0.60;99.90
11848;DHT22;5983;49.966;8.052;2023-03-01T03:47:42;0.60;99.90
11848;DHT22;5983;49.966;8.052;2023-03-01T03:50:10;0.60;99.90
11848;DHT22;5983;49.966;8.052;2023-03-01T03:52:40;0.60;99.90
11848;DHT22;5983;49.966;8.052;2023-03-01T03:55:09;0.60;99.90
11848;DHT22;5983;49.966;8.052;2023-03-01T03:57:38;0.60;99.90
11848;DHT22;5983;49.966;8.052;2023-03-01T04:00:08;0.60;99.90
11848;DHT22;5983;49.966;8.052;2023-03-01T04:02:40;0.50;99.90
11848;DHT22;5983;49.966;8.052;2023-03-01T04:05:08;0.60;99.90
11848;DHT22;5983;49.966;8.052;2023-03-01T04:07:37;0.60;99.90
11848;DHT22;5983;49.966;8.052;2023-03-01T04:10:08;0.70;99.90
11848;DHT22;5983;49.966;8.052;2023-03-01T04:12:37;0.60;99.90
11848;DHT22;5983;49.966;8.052;2023-03-01T04:15:05;0.60;99.90
11848;DHT22;5983;49.966;8.052;2023-03-01T04:17:40;0.60;99.90
11848;DHT22;5983;49.966;8.052;2023-03-01T04:20:10;0.50;99.90
11848;DHT22;5983;49.966;8.052;2023-03-01T04:22:38;0.50;99.90
11848;DHT22;5983;49.966;8.052;2023-03-01T04:25:07;0.50;99.90
11848;DHT22;5983;49.966;8.052;2023-03-01T04:27:40;0.50;99.90
11848;DHT22;5983;49.966;8.052;2023-03-01T04:30:08;0.50;99.90
11848;DHT22;5983;49.966;8.052;2023-03-01T04:32:36;0.50;99.90
11848;DHT22;5983;49.966;8.052;2023-03-01T04:35:05;0.50;99.90
11848;DHT22;5983;49.966;8.052;2023-03-01T04:37:32;0.40;99.90
11848;DHT22;5983;49.966;8.052;2023-03-01T04:40:00;0.50;99.90
11848;DHT22;5983;49.966;8.052;2023-03-01T04:42:31;0.50;99.90
11848;DHT22;5983;49.966;8.052;2023-03-01T04:44:58;0.50;99.90
11848;DHT22;5983;49.966;8.052;2023-03-01T04:47:25;0.40;99.90
11848;DHT22;5983;49.966;8.052;2023-03-01T04:49:52;0.40;99.90
11848;DHT22;5983;49.966;8.052;2023-03-01T04:52:20;0.40;99.90
11848;DHT22;5983;49.966;8.052;2023-03-01T04:54:47;0.40;99.90
11848;DHT22;5983;49.966;8.052;2023-03-01T04:57:14;0.40;99.90
11848;DHT22;5983;49.966;8.052;2023-03-01T04:59:41;0.40;99.90
11848;DHT22;5983;49.966;8.052;2023-03-01T05:02:09;0.30;99.90
11848;DHT22;5983;49.966;8.052;2023-03-01T05:04:36;0.30;99.90
11848;DHT22;5983;49.966;8.052;2023-03-01T05:07:03;0.30;99.90
11848;DHT22;5983;49.966;8.052;2023-03-01T05:09:31;0.30;99.90
11848;DHT22;5983;49.966;8.052;2023-03-01T05:11:58;0.30;99.90
11848;DHT22;5983;49.966;8.052;2023-03-01T05:14:25;0.20;99.90
11848;DHT22;5983;49.966;8.052;2023-03-01T05:16:52;0.20;99.90
11848;DHT22;5983;49.966;8.052;2023-03-01T05:19:19;0.20;99.90
11848;DHT22;5983;49.966;8.052;2023-03-01T05:21:48;0.20;99.90
11848;DHT22;5983;49.966;8.052;2023-03-01T05:24:32;0.20;99.90
11848;DHT22;5983;49.966;8.052;2023-03-01T05:27:01;0.20;99.90
11848;DHT22;5983;49.966;8.052;2023-03-01T05:29:30;0.20;99.90
11848;DHT22;5983;49.966;8.052;2023-03-01T05:32:01;0.20;99.90
11848;DHT22;5983;49.966;8.052;2023-03-01T05:34:30;0.20;99.90
11848;DHT22;5983;49.966;8.052;2023-03-01T05:37:01;0.20;99.90
11848;DHT22;5983;49.966;8.052;2023-03-01T05:39:30;0.20;99.90
11848;DHT22;5983;49.966;8.052;2023-03-01T05:41:59;0.20;99.90
11848;DHT22;5983;49.966;8.052;2023-03-01T05:44:28;0.10;99.90
11848;DHT22;5983;49.966;8.052;2023-03-01T05:46:56;0.10;99.90
11848;DHT22;5983;49.966;8.052;2023-03-01T05:49:23;0.10;99.90
11848;DHT22;5983;49.966;8.052;2023-03-01T05:51:52;0.10;99.90
11848;DHT22;5983;49.966;8.052;2023-03-01T05:54:20;0.10;99.90
11848;DHT22;5983;49.966;8.052;2023-03-01T05:56:49;0.10;99.90
11848;DHT22;5983;49.966;8.052;2023-03-01T05:59:16;0.10;99.90
11848;DHT22;5983;49.966;8.052;2023-03-01T06:01:43;0.10;99.90
11848;DHT22;5983;49.966;8.052;2023-03-01T06:04:10;0.10;99.90
11848;DHT22;5983;49.966;8.052;2023-03-01T06:06:37;0.10;99.90
11848;DHT22;5983;49.966;8.052;2023-03-01T06:09:05;0.10;99.90
11848;DHT22;5983;49.966;8.052;2023-03-01T06:11:35;0.10;99.90
11848;DHT22;5983;49.966;8.052;2023-03-01T06:14:05;0.10;99.90
11848;DHT22;5983;49.966;8.052;2023-03-01T06:16:33;0.10;99.90
11848;DHT22;5983;49.966;8.052;2023-03-01T06:19:00;0.10;99.90
11848;DHT22;5983;49.966;8.052;2023-03-01T06:21:27;0.00;99.90
11848;DHT22;5983;49.966;8.052;2023-03-01T06:23:54;0.00;99.90
11848;DHT22;5983;49.966;8.052;2023-03-01T06:26:21;0.00;99.90
11848;DHT22;5983;49.966;8.052;2023-03-01T06:28:48;0.10;99.90
11848;DHT22;5983;49.966;8.052;2023-03-01T06:31:16;0.10;99.90
11848;DHT22;5983;49.966;8.052;2023-03-01T06:33:43;0.20;99.90
11848;DHT22;5983;49.966;8.052;2023-03-01T06:36:11;0.30;99.90
11848;DHT22;5983;49.966;8.052;2023-03-01T06:38:40;0.30;99.90
11848;DHT22;5983;49.966;8.052;2023-03-01T06:41:09;0.40;99.90
11848;DHT22;5983;49.966;8.052;2023-03-01T06:43:36;0.40;99.90
11848;DHT22;5983;49.966;8.052;2023-03-01T06:46:04;0.50;99.90
11848;DHT22;5983;49.966;8.052;2023-03-01T06:48:33;0.60;99.90
11848;DHT22;5983;49.966;8.052;2023-03-01T06:51:01;0.60;99.90
11848;DHT22;5983;49.966;8.052;2023-03-01T06:53:29;0.60;99.90
11848;DHT22;5983;49.966;8.052;2023-03-01T06:55:56;0.70;99.90
11848;DHT22;5983;49.966;8.052;2023-03-01T06:58:29;0.80;99.90
11848;DHT22;5983;49.966;8.052;2023-03-01T07:00:59;0.90;99.90
11848;DHT22;5983;49.966;8.052;2023-03-01T07:03:26;1.00;99.90
11848;DHT22;5983;49.966;8.052;2023-03-01T07:05:54;1.10;99.90
11848;DHT22;5983;49.966;8.052;2023-03-01T07:08:24;1.30;99.90
11848;DHT22;5983;49.966;8.052;2023-03-01T07:10:55;1.60;99.90
11848;DHT22;5983;49.966;8.052;2023-03-01T07:13:25;1.90;99.90
11848;DHT22;5983;49.966;8.052;2023-03-01T07:15:52;2.30;99.90
11848;DHT22;5983;49.966;8.052;2023-03-01T07:18:19;3.00;99.90
11848;DHT22;5983;49.966;8.052;2023-03-01T07:20:46;3.80;99.90
11848;DHT22;5983;49.966;8.052;2023-03-01T07:23:14;4.80;99.90
11848;DHT22;5983;49.966;8.052;2023-03-01T07:25:41;5.70;99.90
11848;DHT22;5983;49.966;8.052;2023-03-01T07:28:08;6.70;99.90
11848;DHT22;5983;49.966;8.052;2023-03-01T07:30:35;7.60;99.90
11848;DHT22;5983;49.966;8.052;2023-03-01T07:33:02;8.40;99.90
11848;DHT22;5983;49.966;8.052;2023-03-01T07:35:29;9.30;99.90
11848;DHT22;5983;49.966;8.052;2023-03-01T07:37:58;10.10;97.20
11848;DHT22;5983;49.966;8.052;2023-03-01T07:40:27;11.00;92.50
11848;DHT22;5983;49.966;8.052;2023-03-01T07:42:55;11.80;87.10
11848;DHT22;5983;49.966;8.052;2023-03-01T07:45:23;12.40;76.40
11848;DHT22;5983;49.966;8.052;2023-03-01T07:47:50;13.00;68.80
11848;DHT22;5983;49.966;8.052;2023-03-01T07:50:17;13.60;64.00
11848;DHT22;5983;49.966;8.052;2023-03-01T07:52:45;14.30;60.20
11848;DHT22;5983;49.966;8.052;2023-03-01T07:55:12;15.00;56.30
11848;DHT22;5983;49.966;8.052;2023-03-01T07:57:41;15.70;53.30
11848;DHT22;5983;49.966;8.052;2023-03-01T08:00:11;15.90;49.40
11848;DHT22;5983;49.966;8.052;2023-03-01T08:02:38;16.10;48.30
11848;DHT22;5983;49.966;8.052;2023-03-01T08:05:07;16.50;47.00
11848;DHT22;5983;49.966;8.052;2023-03-01T08:07:35;17.00;44.90
11848;DHT22;5983;49.966;8.052;2023-03-01T08:10:02;17.50;42.90
11848;DHT22;5983;49.966;8.052;2023-03-01T08:12:29;18.00;41.30
11848;DHT22;5983;49.966;8.052;2023-03-01T08:14:58;18.20;39.00
11848;DHT22;5983;49.966;8.052;2023-03-01T08:17:25;18.40;38.40
11848;DHT22;5983;49.966;8.052;2023-03-01T08:19:52;18.60;38.40
11848;DHT22;5983;49.966;8.052;2023-03-01T08:22:19;18.80;36.90
11848;DHT22;5983;49.966;8.052;2023-03-01T08:24:46;19.10;35.70
11848;DHT22;5983;49.966;8.052;2023-03-01T08:27:15;19.10;34.60
11848;DHT22;5983;49.966;8.052;2023-03-01T08:29:42;19.10;34.90
11848;DHT22;5983;49.966;8.052;2023-03-01T08:32:10;19.30;34.10
11848;DHT22;5983;49.966;8.052;2023-03-01T08:34:37;19.40;33.70
11848;DHT22;5983;49.966;8.052;2023-03-01T08:37:04;19.50;33.40
11848;DHT22;5983;49.966;8.052;2023-03-01T08:39:31;19.70;33.30
11848;DHT22;5983;49.966;8.052;2023-03-01T08:41:58;19.90;32.90
11848;DHT22;5983;49.966;8.052;2023-03-01T08:44:25;20.20;32.30
11848;DHT22;5983;49.966;8.052;2023-03-01T08:46:52;20.40;32.00
11848;DHT22;5983;49.966;8.052;2023-03-01T08:49:22;20.60;31.60
11848;DHT22;5983;49.966;8.052;2023-03-01T08:51:50;20.90;31.20
11848;DHT22;5983;49.966;8.052;2023-03-01T08:54:19;20.80;30.40
11848;DHT22;5983;49.966;8.052;2023-03-01T08:56:47;20.90;30.50
11848;DHT22;5983;49.966;8.052;2023-03-01T08:59:16;21.10;30.10
11848;DHT22;5983;49.966;8.052;2023-03-01T09:01:43;21.10;29.80
11848;DHT22;5983;49.966;8.052;2023-03-01T09:04:11;21.00;29.70
11848;DHT22;5983;49.966;8.052;2023-03-01T09:06:39;21.30;29.90
11848;DHT22;5983;49.966;8.052;2023-03-01T09:09:12;21.50;29.60
11848;DHT22;5983;49.966;8.052;2023-03-01T09:11:41;21.60;29.20
11848;DHT22;5983;49.966;8.052;2023-03-01T09:14:09;21.50;29.10
11848;DHT22;5983;49.966;8.052;2023-03-01T09:16:36;21.60;29.10
11848;DHT22;5983;49.966;8.052;2023-03-01T09:19:03;21.90;29.00
11848;DHT22;5983;49.966;8.052;2023-03-01T09:21:30;22.40;29.00
11848;DHT22;5983;49.966;8.052;2023-03-01T09:23:58;23.10;28.30
11848;DHT22;5983;49.966;8.052;2023-03-01T09:26:25;23.50;27.90
11848;DHT22;5983;49.966;8.052;2023-03-01T09:28:54;23.80;27.70
11848;DHT22;5983;49.966;8.052;2023-03-01T09:31:24;23.90;27.30
11848;DHT22;5983;49.966;8.052;2023-03-01T09:33:52;24.00;27.00
11848;DHT22;5983;49.966;8.052;2023-03-01T09:36:22;24.40;27.10
11848;DHT22;5983;49.966;8.052;2023-03-01T09:38:51;25.10;26.70
11848;DHT22;5983;49.966;8.052;2023-03-01T09:44:24;25.70;25.90
11848;DHT22;5983;49.966;8.052;2023-03-01T09:46:57;26.30;25.30
11848;DHT22;5983;49.966;8.052;2023-03-01T09:49:26;26.50;25.40
11848;DHT22;5983;49.966;8.052;2023-03-01T09:51:59;26.90;25.00
11848;DHT22;5983;49.966;8.052;2023-03-01T09:54:30;27.40;24.60
11848;DHT22;5983;49.966;8.052;2023-03-01T09:57:07;28.00;23.70
11848;DHT22;5983;49.966;8.052;2023-03-01T09:59:58;28.00;23.50
11848;DHT22;5983;49.966;8.052;2023-03-01T10:02:39;28.10;23.60
11848;DHT22;5983;49.966;8.052;2023-03-01T10:05:25;28.40;23.30
11848;DHT22;5983;49.966;8.052;2023-03-01T10:08:13;28.60;23.00
11848;DHT22;5983;49.966;8.052;2023-03-01T10:10:55;28.80;22.90
11848;DHT22;5983;49.966;8.052;2023-03-01T10:13:27;29.00;22.60
11848;DHT22;5983;49.966;8.052;2023-03-01T10:16:03;29.30;22.30
11848;DHT22;5983;49.966;8.052;2023-03-01T10:18:37;29.60;22.20
11848;DHT22;5983;49.966;8.052;2023-03-01T10:21:13;30.00;21.90
11848;DHT22;5983;49.966;8.052;2023-03-01T10:23:43;30.30;21.70
11848;DHT22;5983;49.966;8.052;2023-03-01T10:26:27;30.40;21.20
11848;DHT22;5983;49.966;8.052;2023-03-01T10:29:07;30.30;21.40
11848;DHT22;5983;49.966;8.052;2023-03-01T10:31:39;30.40;21.10
11848;DHT22;5983;49.966;8.052;2023-03-01T10:34:11;30.50;21.20
11848;DHT22;5983;49.966;8.052;2023-03-01T10:36:42;30.50;21.00
11848;DHT22;5983;49.966;8.052;2023-03-01T10:39:15;30.60;20.70
11848;DHT22;5983;49.966;8.052;2023-03-01T10:41:56;30.50;20.70
11848;DHT22;5983;49.966;8.052;2023-03-01T10:44:41;30.40;20.70
11848;DHT22;5983;49.966;8.052;2023-03-01T10:47:16;30.50;20.80
11848;DHT22;5983;49.966;8.052;2023-03-01T10:49:54;30.60;20.80
11848;DHT22;5983;49.966;8.052;2023-03-01T10:52:34;30.50;20.60
11848;DHT22;5983;49.966;8.052;2023-03-01T10:55:08;30.60;20.60
11848;DHT22;5983;49.966;8.052;2023-03-01T10:58:07;30.70;20.60
11848;DHT22;5983;49.966;8.052;2023-03-01T11:00:47;30.90;20.40
11848;DHT22;5983;49.966;8.052;2023-03-01T11:03:19;30.80;20.10
11848;DHT22;5983;49.966;8.052;2023-03-01T11:05:54;30.90;20.30
11848;DHT22;5983;49.966;8.052;2023-03-01T11:08:39;31.30;20.40
11848;DHT22;5983;49.966;8.052;2023-03-01T11:11:21;31.70;19.90
11848;DHT22;5983;49.966;8.052;2023-03-01T11:13:53;31.50;19.90
11848;DHT22;5983;49.966;8.052;2023-03-01T11:16:37;31.70;19.80
11848;DHT22;5983;49.966;8.052;2023-03-01T11:19:19;31.70;19.80
11848;DHT22;5983;49.966;8.052;2023-03-01T11:21:55;31.80;19.70
11848;DHT22;5983;49.966;8.052;2023-03-01T11:24:34;31.70;19.60
11848;DHT22;5983;49.966;8.052;2023-03-01T11:27:14;31.50;19.80
11848;DHT22;5983;49.966;8.052;2023-03-01T11:29:46;31.80;19.60
11848;DHT22;5983;49.966;8.052;2023-03-01T11:32:20;32.10;19.60
11848;DHT22;5983;49.966;8.052;2023-03-01T11:34:54;32.60;19.20
11848;DHT22;5983;49.966;8.052;2023-03-01T11:37:38;32.90;19.20
11848;DHT22;5983;49.966;8.052;2023-03-01T11:40:13;33.40;18.90
11848;DHT22;5983;49.966;8.052;2023-03-01T11:42:54;33.20;18.70
11848;DHT22;5983;49.966;8.052;2023-03-01T11:45:37;33.00;18.60
11848;DHT22;5983;49.966;8.052;2023-03-01T11:48:33;32.70;18.70
11848;DHT22;5983;49.966;8.052;2023-03-01T11:51:19;32.50;18.60
11848;DHT22;5983;49.966;8.052;2023-03-01T11:54:09;32.40;18.80
11848;DHT22;5983;49.966;8.052;2023-03-01T11:56:46;32.20;18.60
11848;DHT22;5983;49.966;8.052;2023-03-01T11:59:35;31.90;18.80
11848;DHT22;5983;49.966;8.052;2023-03-01T12:06:02;32.30;18.70
11848;DHT22;5983;49.966;8.052;2023-03-01T12:08:42;32.50;18.60
11848;DHT22;5983;49.966;8.052;2023-03-01T12:11:23;33.10;18.60
11848;DHT22;5983;49.966;8.052;2023-03-01T12:14:25;33.80;18.00
11848;DHT22;5983;49.966;8.052;2023-03-01T12:17:20;34.10;17.40
11848;DHT22;5983;49.966;8.052;2023-03-01T12:20:11;34.30;17.50
11848;DHT22;5983;49.966;8.052;2023-03-01T12:23:09;34.20;17.50
11848;DHT22;5983;49.966;8.052;2023-03-01T12:25:54;34.10;17.40
11848;DHT22;5983;49.966;8.052;2023-03-01T12:28:40;34.10;17.40
11848;DHT22;5983;49.966;8.052;2023-03-01T12:31:39;34.10;17.20
11848;DHT22;5983;49.966;8.052;2023-03-01T12:34:46;33.80;17.30
11848;DHT22;5983;49.966;8.052;2023-03-01T12:37:44;33.60;17.30
11848;DHT22;5983;49.966;8.052;2023-03-01T12:40:41;33.40;17.30
11848;DHT22;5983;49.966;8.052;2023-03-01T12:43:27;33.20;17.70
11848;DHT22;5983;49.966;8.052;2023-03-01T12:46:20;33.60;17.40
11848;DHT22;5983;49.966;8.052;2023-03-01T12:49:02;34.00;17.10
11848;DHT22;5983;49.966;8.052;2023-03-01T12:51:35;34.20;16.70
11848;DHT22;5983;49.966;8.052;2023-03-01T12:54:11;34.00;17.10
11848;DHT22;5983;49.966;8.052;2023-03-01T12:56:44;33.70;17.00
11848;DHT22;5983;49.966;8.052;2023-03-01T12:59:21;33.90;16.90
11848;DHT22;5983;49.966;8.052;2023-03-01T13:01:56;33.90;17.00
11848;DHT22;5983;49.966;8.052;2023-03-01T13:04:43;34.00;16.80
11848;DHT22;5983;49.966;8.052;2023-03-01T13:07:27;34.20;16.80
11848;DHT22;5983;49.966;8.052;2023-03-01T13:10:09;34.20;16.40
11848;DHT22;5983;49.966;8.052;2023-03-01T13:12:52;34.20;16.60
11848;DHT22;5983;49.966;8.052;2023-03-01T13:15:34;34.60;16.50
11848;DHT22;5983;49.966;8.052;2023-03-01T13:18:03;34.70;16.30
11848;DHT22;5983;49.966;8.052;2023-03-01T13:20:52;34.70;16.40
11848;DHT22;5983;49.966;8.052;2023-03-01T13:23:27;34.80;16.40
11848;DHT22;5983;49.966;8.052;2023-03-01T13:26:14;35.10;16.20
11848;DHT22;5983;49.966;8.052;2023-03-01T13:28:54;35.50;16.10
11848;DHT22;5983;49.966;8.052;2023-03-01T13:34:44;35.60;15.50
11848;DHT22;5983;49.966;8.052;2023-03-01T13:37:31;35.40;15.60
11848;DHT22;5983;49.966;8.052;2023-03-01T13:40:04;35.70;15.60
11848;DHT22;5983;49.966;8.052;2023-03-01T13:42:53;35.70;15.60
11848;DHT22;5983;49.966;8.052;2023-03-01T13:45:27;35.80;15.50
11848;DHT22;5983;49.966;8.052;2023-03-01T13:48:04;35.80;15.60
11848;DHT22;5983;49.966;8.052;2023-03-01T13:50:43;35.80;15.30
11848;DHT22;5983;49.966;8.052;2023-03-01T13:53:16;35.70;15.40
11848;DHT22;5983;49.966;8.052;2023-03-01T13:55:47;35.50;15.70
11848;DHT22;5983;49.966;8.052;2023-03-01T13:58:23;35.40;15.70
11848;DHT22;5983;49.966;8.052;2023-03-01T14:01:00;35.60;15.60
11848;DHT22;5983;49.966;8.052;2023-03-01T14:03:30;35.40;15.80
11848;DHT22;5983;49.966;8.052;2023-03-01T14:06:01;35.10;16.00
11848;DHT22;5983;49.966;8.052;2023-03-01T14:08:33;34.90;15.90
11848;DHT22;5983;49.966;8.052;2023-03-01T14:14:52;34.80;16.00
11848;DHT22;5983;49.966;8.052;2023-03-01T14:17:43;34.70;16.10
11848;DHT22;5983;49.966;8.052;2023-03-01T14:20:19;34.70;16.00
11848;DHT22;5983;49.966;8.052;2023-03-01T14:22:48;34.40;16.20
11848;DHT22;5983;49.966;8.052;2023-03-01T14:25:24;34.30;16.20
11848;DHT22;5983;49.966;8.052;2023-03-01T14:27:59;34.00;16.30
11848;DHT22;5983;49.966;8.052;2023-03-01T14:30:32;33.70;16.40
11848;DHT22;5983;49.966;8.052;2023-03-01T14:33:04;33.40;16.40
11848;DHT22;5983;49.966;8.052;2023-03-01T14:35:52;33.00;16.70
11848;DHT22;5983;49.966;8.052;2023-03-01T14:38:22;32.60;16.90
11848;DHT22;5983;49.966;8.052;2023-03-01T14:40:52;32.30;17.00
11848;DHT22;5983;49.966;8.052;2023-03-01T14:43:23;32.10;17.30
11848;DHT22;5983;49.966;8.052;2023-03-01T14:45:52;31.60;17.20
11848;DHT22;5983;49.966;8.052;2023-03-01T14:48:21;31.00;17.40
11848;DHT22;5983;49.966;8.052;2023-03-01T14:50:48;29.50;17.80
11848;DHT22;5983;49.966;8.052;2023-03-01T14:53:18;27.70;19.00
11848;DHT22;5983;49.966;8.052;2023-03-01T14:55:51;25.70;20.50
11848;DHT22;5983;49.966;8.052;2023-03-01T14:58:21;23.70;21.80
11848;DHT22;5983;49.966;8.052;2023-03-01T15:00:52;21.80;22.60
11848;DHT22;5983;49.966;8.052;2023-03-01T15:03:28;20.30;24.30
11848;DHT22;5983;49.966;8.052;2023-03-01T15:06:01;18.90;25.20
11848;DHT22;5983;49.966;8.052;2023-03-01T15:08:29;17.90;26.10
11848;DHT22;5983;49.966;8.052;2023-03-01T15:11:03;17.00;27.00
11848;DHT22;5983;49.966;8.052;2023-03-01T15:13:33;16.30;27.70
11848;DHT22;5983;49.966;8.052;2023-03-01T15:16:09;15.80;28.40
11848;DHT22;5983;49.966;8.052;2023-03-01T15:18:45;15.20;28.70
11848;DHT22;5983;49.966;8.052;2023-03-01T15:21:19;14.70;29.60
11848;DHT22;5983;49.966;8.052;2023-03-01T15:23:50;14.20;30.80
11848;DHT22;5983;49.966;8.052;2023-03-01T15:26:28;13.90;31.60
11848;DHT22;5983;49.966;8.052;2023-03-01T15:28:58;13.60;31.30
11848;DHT22;5983;49.966;8.052;2023-03-01T15:31:27;13.40;32.00
11848;DHT22;5983;49.966;8.052;2023-03-01T15:34:19;13.20;33.40
11848;DHT22;5983;49.966;8.052;2023-03-01T15:36:50;12.90;33.60
11848;DHT22;5983;49.966;8.052;2023-03-01T15:39:30;12.70;34.20
11848;DHT22;5983;49.966;8.052;2023-03-01T15:42:05;12.60;34.70
11848;DHT22;5983;49.966;8.052;2023-03-01T15:44:35;12.40;34.70
11848;DHT22;5983;49.966;8.052;2023-03-01T15:47:21;12.20;35.10
11848;DHT22;5983;49.966;8.052;2023-03-01T15:49:58;11.90;35.50
11848;DHT22;5983;49.966;8.052;2023-03-01T15:52:27;11.80;36.20
11848;DHT22;5983;49.966;8.052;2023-03-01T15:55:02;11.80;36.40
11848;DHT22;5983;49.966;8.052;2023-03-01T15:57:31;11.70;36.70
11848;DHT22;5983;49.966;8.052;2023-03-01T15:59:58;11.50;36.70
11848;DHT22;5983;49.966;8.052;2023-03-01T16:02:25;11.30;37.00
11848;DHT22;5983;49.966;8.052;2023-03-01T16:04:52;11.20;37.40
11848;DHT22;5983;49.966;8.052;2023-03-01T16:07:23;11.00;37.60
11848;DHT22;5983;49.966;8.052;2023-03-01T16:09:52;10.90;37.80
11848;DHT22;5983;49.966;8.052;2023-03-01T16:12:19;10.80;38.00
11848;DHT22;5983;49.966;8.052;2023-03-01T16:14:46;10.80;38.40
11848;DHT22;5983;49.966;8.052;2023-03-01T16:17:14;10.70;38.60
11848;DHT22;5983;49.966;8.052;2023-03-01T16:19:41;10.60;38.80
11848;DHT22;5983;49.966;8.052;2023-03-01T16:22:09;10.50;39.10
11848;DHT22;5983;49.966;8.052;2023-03-01T16:24:38;10.40;39.20
11848;DHT22;5983;49.966;8.052;2023-03-01T16:27:06;10.30;39.50
11848;DHT22;5983;49.966;8.052;2023-03-01T16:29:33;10.20;40.10
11848;DHT22;5983;49.966;8.052;2023-03-01T16:32:00;10.10;40.00
11848;DHT22;5983;49.966;8.052;2023-03-01T16:34:28;10.10;40.40
11848;DHT22;5983;49.966;8.052;2023-03-01T16:36:55;10.00;40.70
11848;DHT22;5983;49.966;8.052;2023-03-01T16:39:22;10.00;40.80
11848;DHT22;5983;49.966;8.052;2023-03-01T16:41:50;9.90;42.00